sensor_id;sensor_type;location;lat;lon;timestamp;P1;durP1;ratioP1;P2;durP2;ratioP2
52180;SDS011;38158;53.338;6.514;2023-08-20T08:57:11;8.55;;;2.88;;
52180;SDS011;38158;53.338;6.514;2023-08-20T08:59:37;9.25;;;2.40;;
52180;SDS011;38158;53.338;6.514;2023-08-20T09:02:07;9.38;;;2.03;;
52180;SDS011;38158;53.338;6.514;2023-08-20T09:04:34;8.95;;;2.47;;
52180;SDS011;38158;53.338;6.514;2023-08-20T09:07:03;9.13;;;2.42;;
52180;SDS011;38158;53.338;6.514;2023-08-20T09:09:29;7.15;;;1.98;;
52180;SDS011;38158;53.338;6.514;2023-08-20T09:11:55;7.38;;;1.98;;
52180;SDS011;38158;53.338;6.514;2023-08-20T09:14:27;7.80;;;1.35;;
52180;SDS011;38158;53.338;6.514;2023-08-20T09:16:57;7.88;;;1.90;;
52180;SDS011;38158;53.338;6.514;2023-08-20T09:19:28;6.82;;;1.73;;
52180;SDS011;38158;53.338;6.514;2023-08-20T09:22:01;7.00;;;1.92;;
52180;SDS011;38158;53.338;6.514;2023-08-20T09:25:00;12.25;;;2.60;;
52180;SDS011;38158;53.338;6.514;2023-08-20T09:27:22;12.38;;;2.17;;
52180;SDS011;38158;53.338;6.514;2023-08-20T09:29:49;7.93;;;1.50;;
52180;SDS011;38158;53.338;6.514;2023-08-20T09:32:16;8.65;;;1.88;;
52180;SDS011;38158;53.338;6.514;2023-08-20T09:34:52;6.32;;;1.35;;
52180;SDS011;38158;53.338;6.514;2023-08-20T09:37:20;9.70;;;2.58;;
52180;SDS011;38158;53.338;6.514;2023-08-20T09:39:46;6.72;;;1.23;;
52180;SDS011;38158;53.338;6.514;2023-08-20T09:42:12;7.53;;;1.67;;
52180;SDS011;38158;53.338;6.514;2023-08-20T09:44:39;6.65;;;1.40;;
52180;SDS011;38158;53.338;6.514;2023-08-20T09:49:35;6.55;;;1.20;;
52180;SDS011;38158;53.338;6.514;2023-08-20T09:52:06;5.28;;;0.90;;
52180;SDS011;38158;53.338;6.514;2023-08-20T09:57:30;3.95;;;0.82;;
52180;SDS011;38158;53.338;6.514;2023-08-20T10:00:01;5.25;;;0.98;;
52180;SDS011;38158;53.338;6.514;2023-08-20T10:02:30;6.70;;;1.30;;
52180;SDS011;38158;53.338;6.514;2023-08-20T10:04:57;7.63;;;1.70;;
52180;SDS011;38158;53.338;6.514;2023-08-20T10:07:26;7.43;;;1.20;;
52180;SDS011;38158;53.338;6.514;2023-08-20T10:09:56;4.78;;;1.00;;
52180;SDS011;38158;53.338;6.514;2023-08-20T10:12:25;6.10;;;1.40;;
52180;SDS011;38158;53.338;6.514;2023-08-20T10:14:51;6.82;;;1.33;;
52180;SDS011;38158;53.338;6.514;2023-08-20T10:17:17;8.03;;;1.30;;
52180;SDS011;38158;53.338;6.514;2023-08-20T10:19:43;8.10;;;1.60;;
52180;SDS011;38158;53.338;6.514;2023-08-20T10:22:09;6.40;;;1.23;;
52180;SDS011;38158;53.338;6.514;2023-08-20T10:24:49;6.72;;;1.67;;
52180;SDS011;38158;53.338;6.514;2023-08-20T10:27:26;6.75;;;0.90;;
52180;SDS011;38158;53.338;6.514;2023-08-20T10:29:53;6.50;;;1.05;;
52180;SDS011;38158;53.338;6.514;2023-08-20T10:32:20;4.90;;;0.80;;
52180;SDS011;38158;53.338;6.514;2023-08-20T10:35:05;5.75;;;1.42;;
52180;SDS011;38158;53.338;6.514;2023-08-20T10:37:33;6.68;;;1.27;;
52180;SDS011;38158;53.338;6.514;2023-08-20T10:40:01;5.53;;;1.38;;
52180;SDS011;38158;53.338;6.514;2023-08-20T10:42:29;5.35;;;1.42;;
52180;SDS011;38158;53.338;6.514;2023-08-20T10:47:23;4.68;;;1.13;;
52180;SDS011;38158;53.338;6.514;2023-08-20T10:49:53;7.97;;;1.55;;
52180;SDS011;38158;53.338;6.514;2023-08-20T10:52:22;4.63;;;0.85;;
52180;SDS011;38158;53.338;6.514;2023-08-20T10:54:51;3.88;;;0.95;;
52180;SDS011;38158;53.338;6.514;2023-08-20T10:57:18;8.10;;;1.38;;
52180;SDS011;38158;53.338;6.514;2023-08-20T10:59:55;5.10;;;0.90;;
52180;SDS011;38158;53.338;6.514;2023-08-20T11:02:25;7.28;;;1.17;;
52180;SDS011;38158;53.338;6.514;2023-08-20T11:04:52;4.47;;;1.05;;
52180;SDS011;38158;53.338;6.514;2023-08-20T11:07:19;6.87;;;1.00;;
52180;SDS011;38158;53.338;6.514;2023-08-20T11:09:45;4.72;;;0.65;;
52180;SDS011;38158;53.338;6.514;2023-08-20T11:12:16;4.75;;;1.02;;
52180;SDS011;38158;53.338;6.514;2023-08-20T11:14:44;3.60;;;0.70;;
52180;SDS011;38158;53.338;6.514;2023-08-20T11:17:11;3.63;;;0.77;;
52180;SDS011;38158;53.338;6.514;2023-08-20T11:19:36;7.90;;;1.60;;
52180;SDS011;38158;53.338;6.514;2023-08-20T11:22:02;6.23;;;1.20;;
52180;SDS011;38158;53.338;6.514;2023-08-20T11:24:28;4.33;;;0.83;;
52180;SDS011;38158;53.338;6.514;2023-08-20T11:26:54;6.03;;;1.40;;
52180;SDS011;38158;53.338;6.514;2023-08-20T11:29:24;6.65;;;1.00;;
52180;SDS011;38158;53.338;6.514;2023-08-20T11:31:51;2.88;;;0.55;;
52180;SDS011;38158;53.338;6.514;2023-08-20T11:34:20;4.90;;;0.95;;
52180;SDS011;38158;53.338;6.514;2023-08-20T11:36:46;4.90;;;0.75;;
52180;SDS011;38158;53.338;6.514;2023-08-20T11:41:39;5.85;;;0.98;;
52180;SDS011;38158;53.338;6.514;2023-08-20T11:44:07;6.18;;;1.25;;
52180;SDS011;38158;53.338;6.514;2023-08-20T11:46:41;6.43;;;1.08;;
52180;SDS011;38158;53.338;6.514;2023-08-20T11:49:09;4.65;;;1.15;;
52180;SDS011;38158;53.338;6.514;2023-08-20T11:54:16;4.65;;;0.90;;
52180;SDS011;38158;53.338;6.514;2023-08-20T11:56:47;4.43;;;1.02;;
52180;SDS011;38158;53.338;6.514;2023-08-20T11:59:13;3.58;;;0.80;;
52180;SDS011;38158;53.338;6.514;2023-08-20T12:01:40;5.15;;;1.00;;
52180;SDS011;38158;53.338;6.514;2023-08-20T12:04:06;4.33;;;1.17;;
52180;SDS011;38158;53.338;6.514;2023-08-20T12:06:33;4.10;;;0.70;;
52180;SDS011;38158;53.338;6.514;2023-08-20T12:09:00;3.42;;;0.70;;
52180;SDS011;38158;53.338;6.514;2023-08-20T12:11:30;3.70;;;0.50;;
52180;SDS011;38158;53.338;6.514;2023-08-20T12:13:56;3.70;;;0.70;;
52180;SDS011;38158;53.338;6.514;2023-08-20T12:16:22;3.20;;;0.88;;
52180;SDS011;38158;53.338;6.514;2023-08-20T12:21:14;3.58;;;0.73;;
52180;SDS011;38158;53.338;6.514;2023-08-20T12:23:41;4.15;;;0.75;;
52180;SDS011;38158;53.338;6.514;2023-08-20T12:26:06;4.93;;;0.90;;
52180;SDS011;38158;53.338;6.514;2023-08-20T12:28:35;5.60;;;1.17;;
52180;SDS011;38158;53.338;6.514;2023-08-20T12:31:00;4.47;;;0.83;;
52180;SDS011;38158;53.338;6.514;2023-08-20T12:33:28;9.00;;;1.00;;
52180;SDS011;38158;53.338;6.514;2023-08-20T12:35:54;5.23;;;0.80;;
52180;SDS011;38158;53.338;6.514;2023-08-20T12:38:20;5.13;;;1.20;;
52180;SDS011;38158;53.338;6.514;2023-08-20T12:40:46;4.43;;;1.02;;
52180;SDS011;38158;53.338;6.514;2023-08-20T12:43:12;6.17;;;0.80;;
52180;SDS011;38158;53.338;6.514;2023-08-20T12:45:38;4.27;;;0.87;;
52180;SDS011;38158;53.338;6.514;2023-08-20T12:48:04;5.45;;;0.80;;
52180;SDS011;38158;53.338;6.514;2023-08-20T12:50:32;5.65;;;0.70;;
52180;SDS011;38158;53.338;6.514;2023-08-20T12:52:58;3.53;;;0.73;;
52180;SDS011;38158;53.338;6.514;2023-08-20T12:55:23;3.57;;;0.80;;
52180;SDS011;38158;53.338;6.514;2023-08-20T12:57:57;2.70;;;0.67;;
52180;SDS011;38158;53.338;6.514;2023-08-20T13:00:24;6.63;;;1.88;;
52180;SDS011;38158;53.338;6.514;2023-08-20T13:02:51;4.07;;;1.27;;
52180;SDS011;38158;53.338;6.514;2023-08-20T13:05:19;5.22;;;1.17;;
52180;SDS011;38158;53.338;6.514;2023-08-20T13:07:46;3.53;;;0.70;;
52180;SDS011;38158;53.338;6.514;2023-08-20T13:10:12;4.77;;;0.80;;
52180;SDS011;38158;53.338;6.514;2023-08-20T13:12:39;2.20;;;0.50;;
52180;SDS011;38158;53.338;6.514;2023-08-20T13:15:07;4.18;;;0.93;;
52180;SDS011;38158;53.338;6.514;2023-08-20T13:17:35;4.00;;;1.00;;
52180;SDS011;38158;53.338;6.514;2023-08-20T13:20:00;4.97;;;0.98;;
52180;SDS011;38158;53.338;6.514;2023-08-20T13:22:26;5.87;;;1.13;;
52180;SDS011;38158;53.338;6.514;2023-08-20T13:24:52;4.43;;;0.83;;
52180;SDS011;38158;53.338;6.514;2023-08-20T13:27:17;6.07;;;0.80;;
52180;SDS011;38158;53.338;6.514;2023-08-20T13:29:43;3.50;;;0.70;;
52180;SDS011;38158;53.338;6.514;2023-08-20T13:32:09;3.13;;;0.53;;
52180;SDS011;38158;53.338;6.514;2023-08-20T13:34:34;4.13;;;0.63;;
52180;SDS011;38158;53.338;6.514;2023-08-20T13:37:00;6.43;;;0.90;;
52180;SDS011;38158;53.338;6.514;2023-08-20T13:39:26;3.43;;;0.60;;
52180;SDS011;38158;53.338;6.514;2023-08-20T13:41:51;3.97;;;0.63;;
52180;SDS011;38158;53.338;6.514;2023-08-20T13:44:17;5.37;;;0.80;;
52180;SDS011;38158;53.338;6.514;2023-08-20T13:46:44;6.22;;;1.23;;
52180;SDS011;38158;53.338;6.514;2023-08-20T13:49:10;3.50;;;0.90;;
52180;SDS011;38158;53.338;6.514;2023-08-20T13:51:35;3.17;;;0.57;;
52180;SDS011;38158;53.338;6.514;2023-08-20T13:54:01;3.33;;;0.57;;
52180;SDS011;38158;53.338;6.514;2023-08-20T13:56:27;4.63;;;0.73;;
52180;SDS011;38158;53.338;6.514;2023-08-20T13:58:53;5.93;;;0.77;;
52180;SDS011;38158;53.338;6.514;2023-08-20T14:01:19;4.20;;;0.75;;
52180;SDS011;38158;53.338;6.514;2023-08-20T14:03:44;5.10;;;1.23;;
52180;SDS011;38158;53.338;6.514;2023-08-20T14:06:10;7.37;;;0.80;;
52180;SDS011;38158;53.338;6.514;2023-08-20T14:08:36;8.80;;;1.53;;
52180;SDS011;38158;53.338;6.514;2023-08-20T14:11:01;4.93;;;1.30;;
52180;SDS011;38158;53.338;6.514;2023-08-20T14:13:28;6.03;;;1.15;;
52180;SDS011;38158;53.338;6.514;2023-08-20T14:15:53;3.70;;;0.90;;
52180;SDS011;38158;53.338;6.514;2023-08-20T14:18:19;5.83;;;1.43;;
52180;SDS011;38158;53.338;6.514;2023-08-20T14:20:46;3.88;;;0.77;;
52180;SDS011;38158;53.338;6.514;2023-08-20T14:23:11;3.70;;;0.90;;
52180;SDS011;38158;53.338;6.514;2023-08-20T14:25:37;5.77;;;1.10;;
52180;SDS011;38158;53.338;6.514;2023-08-20T14:28:05;4.30;;;1.05;;
52180;SDS011;38158;53.338;6.514;2023-08-20T14:30:31;8.48;;;1.48;;
52180;SDS011;38158;53.338;6.514;2023-08-20T14:33:00;7.05;;;1.45;;
52180;SDS011;38158;53.338;6.514;2023-08-20T14:35:26;4.80;;;0.93;;
52180;SDS011;38158;53.338;6.514;2023-08-20T14:37:52;4.70;;;1.00;;
52180;SDS011;38158;53.338;6.514;2023-08-20T14:40:19;9.15;;;1.20;;
52180;SDS011;38158;53.338;6.514;2023-08-20T14:42:45;8.37;;;1.50;;
52180;SDS011;38158;53.338;6.514;2023-08-20T14:45:10;7.80;;;1.30;;
52180;SDS011;38158;53.338;6.514;2023-08-20T14:47:36;5.00;;;1.00;;
52180;SDS011;38158;53.338;6.514;2023-08-20T14:50:02;5.90;;;1.20;;
52180;SDS011;38158;53.338;6.514;2023-08-20T14:52:28;4.53;;;1.13;;
52180;SDS011;38158;53.338;6.514;2023-08-20T14:54:54;7.20;;;1.17;;
52180;SDS011;38158;53.338;6.514;2023-08-20T14:57:19;7.30;;;1.20;;
52180;SDS011;38158;53.338;6.514;2023-08-20T14:59:45;5.87;;;1.20;;
52180;SDS011;38158;53.338;6.514;2023-08-20T15:02:11;5.63;;;1.03;;
52180;SDS011;38158;53.338;6.514;2023-08-20T15:04:36;6.47;;;1.07;;
52180;SDS011;38158;53.338;6.514;2023-08-20T15:07:02;5.03;;;0.90;;
52180;SDS011;38158;53.338;6.514;2023-08-20T15:09:28;4.60;;;1.10;;
52180;SDS011;38158;53.338;6.514;2023-08-20T15:11:54;6.88;;;1.50;;
52180;SDS011;38158;53.338;6.514;2023-08-20T15:14:21;9.30;;;1.77;;
52180;SDS011;38158;53.338;6.514;2023-08-20T15:16:47;4.60;;;1.00;;
52180;SDS011;38158;53.338;6.514;2023-08-20T15:19:13;4.00;;;1.27;;
52180;SDS011;38158;53.338;6.514;2023-08-20T15:21:39;4.67;;;1.03;;
52180;SDS011;38158;53.338;6.514;2023-08-20T15:24:04;5.70;;;1.20;;
52180;SDS011;38158;53.338;6.514;2023-08-20T15:26:30;5.83;;;1.20;;
52180;SDS011;38158;53.338;6.514;2023-08-20T15:28:56;6.17;;;1.20;;
52180;SDS011;38158;53.338;6.514;2023-08-20T15:31:21;4.32;;;0.88;;
52180;SDS011;38158;53.338;6.514;2023-08-20T15:33:47;5.97;;;0.98;;
52180;SDS011;38158;53.338;6.514;2023-08-20T15:36:13;4.83;;;0.87;;
52180;SDS011;38158;53.338;6.514;2023-08-20T15:38:38;4.50;;;1.03;;
52180;SDS011;38158;53.338;6.514;2023-08-20T15:41:04;5.47;;;0.97;;
52180;SDS011;38158;53.338;6.514;2023-08-20T15:43:30;5.53;;;1.17;;
52180;SDS011;38158;53.338;6.514;2023-08-20T15:45:56;4.03;;;0.90;;
52180;SDS011;38158;53.338;6.514;2023-08-20T15:48:21;5.37;;;0.93;;
52180;SDS011;38158;53.338;6.514;2023-08-20T15:50:47;3.33;;;0.77;;
52180;SDS011;38158;53.338;6.514;2023-08-20T15:53:13;7.33;;;1.30;;
52180;SDS011;38158;53.338;6.514;2023-08-20T15:55:39;5.18;;;1.17;;
52180;SDS011;38158;53.338;6.514;2023-08-20T15:58:05;3.17;;;1.00;;
52180;SDS011;38158;53.338;6.514;2023-08-20T16:00:31;4.55;;;1.08;;
52180;SDS011;38158;53.338;6.514;2023-08-20T16:02:56;8.60;;;1.40;;
52180;SDS011;38158;53.338;6.514;2023-08-20T16:05:22;7.67;;;1.20;;
52180;SDS011;38158;53.338;6.514;2023-08-20T16:07:48;4.57;;;1.10;;
52180;SDS011;38158;53.338;6.514;2023-08-20T16:10:14;6.37;;;1.07;;
52180;SDS011;38158;53.338;6.514;2023-08-20T16:15:07;7.13;;;1.48;;
52180;SDS011;38158;53.338;6.514;2023-08-20T16:17:34;5.72;;;1.33;;
52180;SDS011;38158;53.338;6.514;2023-08-20T16:19:59;5.80;;;1.17;;
52180;SDS011;38158;53.338;6.514;2023-08-20T16:22:26;7.53;;;1.45;;
52180;SDS011;38158;53.338;6.514;2023-08-20T16:24:52;5.22;;;1.02;;
52180;SDS011;38158;53.338;6.514;2023-08-20T16:27:18;6.53;;;1.37;;
52180;SDS011;38158;53.338;6.514;2023-08-20T16:29:44;6.28;;;1.00;;
52180;SDS011;38158;53.338;6.514;2023-08-20T16:32:10;4.13;;;0.97;;
52180;SDS011;38158;53.338;6.514;2023-08-20T16:34:35;4.17;;;0.63;;
52180;SDS011;38158;53.338;6.514;2023-08-20T16:37:01;4.40;;;0.70;;
52180;SDS011;38158;53.338;6.514;2023-08-20T16:39:27;7.03;;;1.25;;
52180;SDS011;38158;53.338;6.514;2023-08-20T16:41:53;6.80;;;1.43;;
52180;SDS011;38158;53.338;6.514;2023-08-20T16:44:19;6.97;;;1.30;;
52180;SDS011;38158;53.338;6.514;2023-08-20T16:46:45;9.57;;;2.03;;
52180;SDS011;38158;53.338;6.514;2023-08-20T16:49:12;6.85;;;1.17;;
52180;SDS011;38158;53.338;6.514;2023-08-20T16:51:37;4.83;;;0.93;;
52180;SDS011;38158;53.338;6.514;2023-08-20T16:54:03;6.78;;;1.33;;
52180;SDS011;38158;53.338;6.514;2023-08-20T16:56:29;7.53;;;1.60;;
52180;SDS011;38158;53.338;6.514;2023-08-20T16:58:55;7.97;;;1.53;;
52180;SDS011;38158;53.338;6.514;2023-08-20T17:01:20;8.88;;;1.10;;
52180;SDS011;38158;53.338;6.514;2023-08-20T17:03:46;8.63;;;1.43;;
52180;SDS011;38158;53.338;6.514;2023-08-20T17:06:12;3.17;;;0.80;;
52180;SDS011;38158;53.338;6.514;2023-08-20T17:08:37;8.75;;;1.23;;
52180;SDS011;38158;53.338;6.514;2023-08-20T17:11:04;4.32;;;1.17;;
52180;SDS011;38158;53.338;6.514;2023-08-20T17:13:34;3.42;;;0.95;;
52180;SDS011;38158;53.338;6.514;2023-08-20T17:16:00;3.25;;;0.60;;
52180;SDS011;38158;53.338;6.514;2023-08-20T17:18:27;3.60;;;0.60;;
52180;SDS011;38158;53.338;6.514;2023-08-20T17:20:55;3.92;;;0.70;;
52180;SDS011;38158;53.338;6.514;2023-08-20T17:23:21;3.88;;;0.65;;
52180;SDS011;38158;53.338;6.514;2023-08-20T17:25:47;2.87;;;0.40;;
52180;SDS011;38158;53.338;6.514;2023-08-20T17:28:13;5.23;;;0.77;;
52180;SDS011;38158;53.338;6.514;2023-08-20T17:30:39;2.97;;;0.67;;
52180;SDS011;38158;53.338;6.514;2023-08-20T17:33:05;4.27;;;0.70;;
52180;SDS011;38158;53.338;6.514;2023-08-20T17:35:32;4.10;;;0.57;;
52180;SDS011;38158;53.338;6.514;2023-08-20T17:37:58;3.10;;;0.68;;
52180;SDS011;38158;53.338;6.514;2023-08-20T17:40:23;3.67;;;0.63;;
52180;SDS011;38158;53.338;6.514;2023-08-20T17:42:49;5.40;;;0.80;;
52180;SDS011;38158;53.338;6.514;2023-08-20T17:45:15;2.22;;;0.47;;
52180;SDS011;38158;53.338;6.514;2023-08-20T17:47:40;2.13;;;0.50;;
52180;SDS011;38158;53.338;6.514;2023-08-20T17:50:06;2.47;;;0.40;;
52180;SDS011;38158;53.338;6.514;2023-08-20T17:52:33;2.17;;;0.40;;
52180;SDS011;38158;53.338;6.514;2023-08-20T17:54:59;2.63;;;0.45;;
52180;SDS011;38158;53.338;6.514;2023-08-20T17:57:25;2.58;;;0.60;;
52180;SDS011;38158;53.338;6.514;2023-08-20T17:59:51;1.83;;;0.50;;
52180;SDS011;38158;53.338;6.514;2023-08-20T18:02:17;2.35;;;0.65;;
52180;SDS011;38158;53.338;6.514;2023-08-20T18:04:42;2.47;;;0.63;;
52180;SDS011;38158;53.338;6.514;2023-08-20T18:07:09;4.15;;;0.80;;
52180;SDS011;38158;53.338;6.514;2023-08-20T18:09:35;2.38;;;0.80;;
52180;SDS011;38158;53.338;6.514;2023-08-20T18:12:01;3.50;;;0.77;;
52180;SDS011;38158;53.338;6.514;2023-08-20T18:14:27;3.70;;;0.95;;
52180;SDS011;38158;53.338;6.514;2023-08-20T18:16:53;5.32;;;0.77;;
52180;SDS011;38158;53.338;6.514;2023-08-20T18:19:19;2.88;;;0.43;;
52180;SDS011;38158;53.338;6.514;2023-08-20T18:21:44;1.67;;;0.57;;
52180;SDS011;38158;53.338;6.514;2023-08-20T18:24:11;3.27;;;0.93;;
52180;SDS011;38158;53.338;6.514;2023-08-20T18:26:36;3.05;;;0.55;;
52180;SDS011;38158;53.338;6.514;2023-08-20T18:29:02;2.42;;;0.80;;
52180;SDS011;38158;53.338;6.514;2023-08-20T18:31:28;2.22;;;0.65;;
52180;SDS011;38158;53.338;6.514;2023-08-20T18:33:54;3.22;;;0.50;;
52180;SDS011;38158;53.338;6.514;2023-08-20T18:36:19;4.28;;;0.93;;
52180;SDS011;38158;53.338;6.514;2023-08-20T18:38:45;2.83;;;0.55;;
52180;SDS011;38158;53.338;6.514;2023-08-20T18:41:11;2.15;;;0.70;;
52180;SDS011;38158;53.338;6.514;2023-08-20T18:43:40;3.25;;;0.80;;
52180;SDS011;38158;53.338;6.514;2023-08-20T18:46:06;3.10;;;0.50;;
52180;SDS011;38158;53.338;6.514;2023-08-20T18:48:32;5.93;;;0.90;;
52180;SDS011;38158;53.338;6.514;2023-08-20T18:50:59;2.60;;;1.15;;
52180;SDS011;38158;53.338;6.514;2023-08-20T18:53:27;5.88;;;1.90;;
52180;SDS011;38158;53.338;6.514;2023-08-20T18:55:53;3.92;;;1.00;;
52180;SDS011;38158;53.338;6.514;2023-08-20T18:58:19;2.47;;;0.73;;
52180;SDS011;38158;53.338;6.514;2023-08-20T19:00:45;3.50;;;0.85;;
52180;SDS011;38158;53.338;6.514;2023-08-20T19:03:11;3.53;;;0.60;;
52180;SDS011;38158;53.338;6.514;2023-08-20T19:05:37;2.42;;;0.57;;
52180;SDS011;38158;53.338;6.514;2023-08-20T19:08:03;4.70;;;0.70;;
52180;SDS011;38158;53.338;6.514;2023-08-20T19:10:29;2.87;;;0.50;;
52180;SDS011;38158;53.338;6.514;2023-08-20T19:12:55;5.88;;;0.90;;
52180;SDS011;38158;53.338;6.514;2023-08-20T19:15:21;4.70;;;1.10;;
52180;SDS011;38158;53.338;6.514;2023-08-20T19:17:46;5.13;;;1.08;;
52180;SDS011;38158;53.338;6.514;2023-08-20T19:20:12;3.15;;;0.70;;
52180;SDS011;38158;53.338;6.514;2023-08-20T19:22:39;3.55;;;0.98;;
52180;SDS011;38158;53.338;6.514;2023-08-20T19:25:05;5.47;;;1.33;;
52180;SDS011;38158;53.338;6.514;2023-08-20T19:27:32;4.03;;;1.20;;
52180;SDS011;38158;53.338;6.514;2023-08-20T19:29:58;4.93;;;1.40;;
52180;SDS011;38158;53.338;6.514;2023-08-20T19:32:25;4.22;;;1.13;;
52180;SDS011;38158;53.338;6.514;2023-08-20T19:34:51;4.43;;;0.82;;
52180;SDS011;38158;53.338;6.514;2023-08-20T19:37:17;5.03;;;1.02;;
52180;SDS011;38158;53.338;6.514;2023-08-20T19:39:43;5.32;;;1.15;;
52180;SDS011;38158;53.338;6.514;2023-08-20T19:42:09;5.50;;;0.93;;
52180;SDS011;38158;53.338;6.514;2023-08-20T19:44:35;4.03;;;0.88;;
52180;SDS011;38158;53.338;6.514;2023-08-20T19:47:01;4.95;;;0.95;;
52180;SDS011;38158;53.338;6.514;2023-08-20T19:49:30;6.00;;;1.20;;
52180;SDS011;38158;53.338;6.514;2023-08-20T19:51:56;7.63;;;1.10;;
52180;SDS011;38158;53.338;6.514;2023-08-20T19:54:22;8.10;;;2.17;;
52180;SDS011;38158;53.338;6.514;2023-08-20T19:56:47;5.85;;;1.50;;
52180;SDS011;38158;53.338;6.514;2023-08-20T19:59:13;6.50;;;1.55;;
52180;SDS011;38158;53.338;6.514;2023-08-20T20:01:46;4.45;;;1.10;;
52180;SDS011;38158;53.338;6.514;2023-08-20T20:04:13;3.70;;;1.10;;
52180;SDS011;38158;53.338;6.514;2023-08-20T20:06:39;7.30;;;1.95;;
52180;SDS011;38158;53.338;6.514;2023-08-20T20:09:05;4.75;;;1.60;;
52180;SDS011;38158;53.338;6.514;2023-08-20T20:11:31;3.17;;;0.98;;
52180;SDS011;38158;53.338;6.514;2023-08-20T20:13:57;7.47;;;1.40;;
52180;SDS011;38158;53.338;6.514;2023-08-20T20:16:23;7.10;;;1.33;;
52180;SDS011;38158;53.338;6.514;2023-08-20T20:18:48;10.57;;;1.83;;
52180;SDS011;38158;53.338;6.514;2023-08-20T20:21:14;5.43;;;1.38;;
52180;SDS011;38158;53.338;6.514;2023-08-20T20:23:40;4.75;;;1.38;;
52180;SDS011;38158;53.338;6.514;2023-08-20T20:26:05;5.75;;;1.52;;
52180;SDS011;38158;53.338;6.514;2023-08-20T20:28:31;4.97;;;1.52;;
52180;SDS011;38158;53.338;6.514;2023-08-20T20:30:57;7.40;;;1.67;;
52180;SDS011;38158;53.338;6.514;2023-08-20T20:33:23;5.22;;;1.58;;
52180;SDS011;38158;53.338;6.514;2023-08-20T20:35:55;5.20;;;1.70;;
52180;SDS011;38158;53.338;6.514;2023-08-20T20:38:20;6.97;;;2.28;;
52180;SDS011;38158;53.338;6.514;2023-08-20T20:40:46;7.35;;;1.48;;
52180;SDS011;38158;53.338;6.514;2023-08-20T20:43:12;5.83;;;1.50;;
52180;SDS011;38158;53.338;6.514;2023-08-20T20:45:44;4.78;;;1.55;;
52180;SDS011;38158;53.338;6.514;2023-08-20T20:48:10;6.38;;;1.33;;
52180;SDS011;38158;53.338;6.514;2023-08-20T20:50:36;5.75;;;1.58;;
52180;SDS011;38158;53.338;6.514;2023-08-20T20:53:02;7.78;;;1.40;;
52180;SDS011;38158;53.338;6.514;2023-08-20T20:55:28;6.37;;;1.57;;
52180;SDS011;38158;53.338;6.514;2023-08-20T20:57:55;5.63;;;1.42;;
52180;SDS011;38158;53.338;6.514;2023-08-20T21:00:21;17.13;;;11.18;;
52180;SDS011;38158;53.338;6.514;2023-08-20T21:02:47;13.15;;;6.93;;
52180;SDS011;38158;53.338;6.514;2023-08-20T21:05:13;11.32;;;3.92;;
52180;SDS011;38158;53.338;6.514;2023-08-20T21:07:39;8.68;;;2.90;;
52180;SDS011;38158;53.338;6.514;2023-08-20T21:10:05;7.75;;;2.85;;
52180;SDS011;38158;53.338;6.514;2023-08-20T21:12:31;9.10;;;2.30;;
52180;SDS011;38158;53.338;6.514;2023-08-20T21:14:56;6.78;;;1.83;;
52180;SDS011;38158;53.338;6.514;2023-08-20T21:17:22;5.68;;;1.70;;
52180;SDS011;38158;53.338;6.514;2023-08-20T21:19:48;4.70;;;1.38;;
52180;SDS011;38158;53.338;6.514;2023-08-20T21:22:14;7.00;;;1.42;;
52180;SDS011;38158;53.338;6.514;2023-08-20T21:24:39;6.35;;;1.60;;
52180;SDS011;38158;53.338;6.514;2023-08-20T21:27:06;10.07;;;1.67;;
52180;SDS011;38158;53.338;6.514;2023-08-20T21:29:33;4.05;;;2.13;;
52180;SDS011;38158;53.338;6.514;2023-08-20T21:31:59;6.20;;;2.75;;
52180;SDS011;38158;53.338;6.514;2023-08-20T21:34:25;6.38;;;2.55;;
52180;SDS011;38158;53.338;6.514;2023-08-20T21:36:50;8.13;;;2.50;;
52180;SDS011;38158;53.338;6.514;2023-08-20T21:39:16;8.13;;;2.75;;
52180;SDS011;38158;53.338;6.514;2023-08-20T21:41:42;7.38;;;2.50;;
52180;SDS011;38158;53.338;6.514;2023-08-20T21:44:07;9.30;;;3.08;;
52180;SDS011;38158;53.338;6.514;2023-08-20T21:46:33;8.57;;;2.10;;
52180;SDS011;38158;53.338;6.514;2023-08-20T21:48:59;7.28;;;2.55;;
52180;SDS011;38158;53.338;6.514;2023-08-20T21:51:24;7.00;;;2.25;;
52180;SDS011;38158;53.338;6.514;2023-08-20T21:53:50;8.95;;;2.03;;
52180;SDS011;38158;53.338;6.514;2023-08-20T21:56:16;7.93;;;1.83;;
52180;SDS011;38158;53.338;6.514;2023-08-20T21:58:41;6.85;;;2.13;;
52180;SDS011;38158;53.338;6.514;2023-08-20T22:01:07;5.35;;;1.77;;
52180;SDS011;38158;53.338;6.514;2023-08-20T22:03:33;7.18;;;1.88;;
52180;SDS011;38158;53.338;6.514;2023-08-20T22:05:59;6.68;;;2.00;;
52180;SDS011;38158;53.338;6.514;2023-08-20T22:08:26;6.90;;;1.70;;
52180;SDS011;38158;53.338;6.514;2023-08-20T22:10:58;4.93;;;1.67;;
52180;SDS011;38158;53.338;6.514;2023-08-20T22:13:24;6.97;;;1.95;;
52180;SDS011;38158;53.338;6.514;2023-08-20T22:15:51;5.45;;;2.03;;
52180;SDS011;38158;53.338;6.514;2023-08-20T22:18:17;5.60;;;2.10;;
52180;SDS011;38158;53.338;6.514;2023-08-20T22:20:43;6.05;;;2.40;;
52180;SDS011;38158;53.338;6.514;2023-08-20T22:23:09;7.22;;;1.88;;
52180;SDS011;38158;53.338;6.514;2023-08-20T22:25:34;8.43;;;2.42;;
52180;SDS011;38158;53.338;6.514;2023-08-20T22:28:00;4.75;;;1.80;;
52180;SDS011;38158;53.338;6.514;2023-08-20T22:30:25;5.82;;;2.20;;
52180;SDS011;38158;53.338;6.514;2023-08-20T22:32:51;6.90;;;1.83;;
52180;SDS011;38158;53.338;6.514;2023-08-20T22:35:17;5.88;;;2.25;;
52180;SDS011;38158;53.338;6.514;2023-08-20T22:38:06;5.95;;;2.13;;
52180;SDS011;38158;53.338;6.514;2023-08-20T22:40:36;8.15;;;2.45;;
52180;SDS011;38158;53.338;6.514;2023-08-20T22:43:03;4.15;;;1.60;;
52180;SDS011;38158;53.338;6.514;2023-08-20T22:45:29;5.67;;;1.60;;
52180;SDS011;38158;53.338;6.514;2023-08-20T22:47:56;4.90;;;1.50;;
52180;SDS011;38158;53.338;6.514;2023-08-20T22:50:26;8.13;;;2.13;;
52180;SDS011;38158;53.338;6.514;2023-08-20T22:52:52;4.25;;;1.52;;
52180;SDS011;38158;53.338;6.514;2023-08-20T22:55:18;5.07;;;1.33;;
52180;SDS011;38158;53.338;6.514;2023-08-20T22:57:44;4.63;;;1.63;;
52180;SDS011;38158;53.338;6.514;2023-08-20T23:00:10;8.18;;;2.35;;
52180;SDS011;38158;53.338;6.514;2023-08-20T23:02:37;5.35;;;1.80;;
52180;SDS011;38158;53.338;6.514;2023-08-20T23:05:03;5.40;;;1.80;;
52180;SDS011;38158;53.338;6.514;2023-08-20T23:07:30;6.68;;;2.08;;
52180;SDS011;38158;53.338;6.514;2023-08-20T23:09:56;4.60;;;2.20;;
52180;SDS011;38158;53.338;6.514;2023-08-20T23:12:22;5.95;;;1.95;;
52180;SDS011;38158;53.338;6.514;2023-08-20T23:14:48;4.97;;;2.10;;
52180;SDS011;38158;53.338;6.514;2023-08-20T23:17:14;9.23;;;2.38;;
52180;SDS011;38158;53.338;6.514;2023-08-20T23:19:43;10.40;;;2.28;;
52180;SDS011;38158;53.338;6.514;2023-08-20T23:24:35;8.30;;;2.22;;
52180;SDS011;38158;53.338;6.514;2023-08-20T23:27:01;7.30;;;2.42;;
52180;SDS011;38158;53.338;6.514;2023-08-20T23:29:27;8.40;;;2.47;;
52180;SDS011;38158;53.338;6.514;2023-08-20T23:31:53;7.55;;;2.72;;
52180;SDS011;38158;53.338;6.514;2023-08-20T23:34:18;6.97;;;2.22;;
52180;SDS011;38158;53.338;6.514;2023-08-20T23:36:44;5.13;;;2.20;;
52180;SDS011;38158;53.338;6.514;2023-08-20T23:39:10;5.97;;;2.10;;
52180;SDS011;38158;53.338;6.514;2023-08-20T23:41:35;6.45;;;2.33;;
52180;SDS011;38158;53.338;6.514;2023-08-20T23:44:01;5.18;;;2.45;;
52180;SDS011;38158;53.338;6.514;2023-08-20T23:46:27;7.40;;;2.50;;
52180;SDS011;38158;53.338;6.514;2023-08-20T23:48:52;8.63;;;2.60;;
52180;SDS011;38158;53.338;6.514;2023-08-20T23:51:18;4.00;;;2.15;;
52180;SDS011;38158;53.338;6.514;2023-08-20T23:53:44;5.88;;;2.05;;
52180;SDS011;38158;53.338;6.514;2023-08-20T23:56:09;5.70;;;2.22;;
52180;SDS011;38158;53.338;6.514;2023-08-20T23:58:35;5.97;;;2.17;;
